sensor_id;sensor_type;location;lat;lon;timestamp;pressure;altitude;pressure_sealevel;temperature;humidity
45078;BME280;60508;42.622;25.416;2024-01-25T00:02:41;96974.38;;;2.56;71.52
45078;BME280;60508;42.622;25.416;2024-01-25T00:05:08;96981.75;;;2.39;72.37
45078;BME280;60508;42.622;25.416;2024-01-25T00:07:45;96999.19;;;2.12;73.64
45078;BME280;60508;42.622;25.416;2024-01-25T00:10:12;96982.50;;;2.18;73.51
45078;BME280;60508;42.622;25.416;2024-01-25T00:12:39;96974.28;;;2.28;72.98
45078;BME280;60508;42.622;25.416;2024-01-25T00:15:05;96974.84;;;2.08;73.51
45078;BME280;60508;42.622;25.416;2024-01-25T00:17:32;96973.66;;;2.11;73.26
45078;BME280;60508;42.622;25.416;2024-01-25T00:19:59;96965.09;;;2.09;73.98
45078;BME280;60508;42.622;25.416;2024-01-25T00:22:46;96956.09;;;2.25;73.06
45078;BME280;60508;42.622;25.416;2024-01-25T00:25:19;96962.91;;;2.34;72.60
45078;BME280;60508;42.622;25.416;2024-01-25T00:28:06;96947.16;;;2.47;72.20
45078;BME280;60508;42.622;25.416;2024-01-25T00:30:33;96949.34;;;2.44;71.97
45078;BME280;60508;42.622;25.416;2024-01-25T00:33:00;96946.13;;;2.63;71.04
45078;BME280;60508;42.622;25.416;2024-01-25T00:35:48;96945.91;;;2.86;70.66
45078;BME280;60508;42.622;25.416;2024-01-25T00:38:15;96944.84;;;3.02;70.10
45078;BME280;60508;42.622;25.416;2024-01-25T00:40:43;96925.03;;;3.05;69.66
45078;BME280;60508;42.622;25.416;2024-01-25T00:43:10;96914.66;;;3.10;69.35
45078;BME280;60508;42.622;25.416;2024-01-25T00:45:37;96911.47;;;3.21;69.41
45078;BME280;60508;42.622;25.416;2024-01-25T00:48:05;96906.94;;;3.15;69.10
45078;BME280;60508;42.622;25.416;2024-01-25T00:50:32;96931.94;;;2.99;69.92
45078;BME280;60508;42.622;25.416;2024-01-25T00:53:20;96899.91;;;2.79;70.65
45078;BME280;60508;42.622;25.416;2024-01-25T00:55:56;96919.13;;;2.60;71.36
45078;BME280;60508;42.622;25.416;2024-01-25T00:58:24;96945.78;;;2.51;72.18
45078;BME280;60508;42.622;25.416;2024-01-25T01:00:51;96940.44;;;2.30;73.19
45078;BME280;60508;42.622;25.416;2024-01-25T01:03:21;96927.13;;;2.23;73.88
45078;BME280;60508;42.622;25.416;2024-01-25T01:05:49;96925.66;;;2.21;74.03
45078;BME280;60508;42.622;25.416;2024-01-25T01:08:16;96904.78;;;1.96;75.23
45078;BME280;60508;42.622;25.416;2024-01-25T01:10:42;96898.00;;;1.93;75.93
45078;BME280;60508;42.622;25.416;2024-01-25T01:13:30;96925.69;;;2.06;75.39
45078;BME280;60508;42.622;25.416;2024-01-25T01:15:57;96921.94;;;2.00;75.19
45078;BME280;60508;42.622;25.416;2024-01-25T01:18:24;96919.25;;;1.78;76.26
45078;BME280;60508;42.622;25.416;2024-01-25T01:20:51;96931.94;;;2.19;75.37
45078;BME280;60508;42.622;25.416;2024-01-25T01:23:18;96914.94;;;2.29;74.36
45078;BME280;60508;42.622;25.416;2024-01-25T01:25:45;96916.72;;;2.07;75.34
45078;BME280;60508;42.622;25.416;2024-01-25T01:28:13;96891.28;;;1.76;76.53
45078;BME280;60508;42.622;25.416;2024-01-25T01:30:59;96891.78;;;2.01;76.39
45078;BME280;60508;42.622;25.416;2024-01-25T01:33:26;96878.16;;;2.04;76.04
45078;BME280;60508;42.622;25.416;2024-01-25T01:35:53;96849.72;;;2.13;75.57
45078;BME280;60508;42.622;25.416;2024-01-25T01:38:40;96875.97;;;2.08;75.48
45078;BME280;60508;42.622;25.416;2024-01-25T01:41:09;96858.13;;;2.16;75.41
45078;BME280;60508;42.622;25.416;2024-01-25T01:43:56;96849.16;;;2.17;75.25
45078;BME280;60508;42.622;25.416;2024-01-25T01:46:36;96852.81;;;2.38;74.59
45078;BME280;60508;42.622;25.416;2024-01-25T01:49:27;96847.09;;;2.34;73.65
45078;BME280;60508;42.622;25.416;2024-01-25T01:51:54;96815.22;;;2.28;73.88
45078;BME280;60508;42.622;25.416;2024-01-25T01:54:21;96838.63;;;2.46;73.66
45078;BME280;60508;42.622;25.416;2024-01-25T01:57:09;96849.94;;;2.33;73.97
45078;BME280;60508;42.622;25.416;2024-01-25T01:59:36;96851.94;;;2.52;73.28
45078;BME280;60508;42.622;25.416;2024-01-25T02:02:03;96856.72;;;2.42;73.54
45078;BME280;60508;42.622;25.416;2024-01-25T02:04:30;96837.00;;;2.23;74.59
45078;BME280;60508;42.622;25.416;2024-01-25T02:07:17;96853.38;;;2.33;74.50
45078;BME280;60508;42.622;25.416;2024-01-25T02:09:44;96814.56;;;2.47;74.21
45078;BME280;60508;42.622;25.416;2024-01-25T02:12:10;96810.22;;;2.68;73.43
45078;BME280;60508;42.622;25.416;2024-01-25T02:14:57;96842.81;;;2.83;72.33
45078;BME280;60508;42.622;25.416;2024-01-25T02:17:24;96824.00;;;2.56;73.69
45078;BME280;60508;42.622;25.416;2024-01-25T02:19:50;96813.72;;;2.68;73.32
45078;BME280;60508;42.622;25.416;2024-01-25T02:22:20;96827.44;;;2.79;72.96
45078;BME280;60508;42.622;25.416;2024-01-25T02:25:07;96809.88;;;2.78;72.71
45078;BME280;60508;42.622;25.416;2024-01-25T02:27:34;96804.91;;;2.96;71.95
45078;BME280;60508;42.622;25.416;2024-01-25T02:30:25;96792.84;;;2.93;71.28
45078;BME280;60508;42.622;25.416;2024-01-25T02:32:51;96791.84;;;2.95;71.56
45078;BME280;60508;42.622;25.416;2024-01-25T02:35:18;96789.00;;;2.96;71.54
45078;BME280;60508;42.622;25.416;2024-01-25T02:37:46;96785.19;;;3.05;70.97
45078;BME280;60508;42.622;25.416;2024-01-25T02:40:32;96770.66;;;3.01;70.35
45078;BME280;60508;42.622;25.416;2024-01-25T02:42:59;96771.09;;;3.11;69.55
45078;BME280;60508;42.622;25.416;2024-01-25T02:45:26;96783.09;;;3.01;69.73
45078;BME280;60508;42.622;25.416;2024-01-25T02:48:13;96771.03;;;2.98;70.43
45078;BME280;60508;42.622;25.416;2024-01-25T02:50:40;96770.22;;;2.98;69.77
45078;BME280;60508;42.622;25.416;2024-01-25T02:53:07;96782.34;;;3.07;69.83
45078;BME280;60508;42.622;25.416;2024-01-25T02:55:34;96755.91;;;2.99;69.92
45078;BME280;60508;42.622;25.416;2024-01-25T02:58:01;96745.06;;;2.93;70.44
45078;BME280;60508;42.622;25.416;2024-01-25T03:00:28;96764.16;;;3.10;70.71
45078;BME280;60508;42.622;25.416;2024-01-25T03:02:55;96749.28;;;3.16;70.22
45078;BME280;60508;42.622;25.416;2024-01-25T03:05:22;96770.00;;;2.92;71.11
45078;BME280;60508;42.622;25.416;2024-01-25T03:08:09;96765.41;;;2.51;72.82
45078;BME280;60508;42.622;25.416;2024-01-25T03:10:35;96770.78;;;2.58;73.25
45078;BME280;60508;42.622;25.416;2024-01-25T03:13:23;96774.44;;;2.57;73.14
45078;BME280;60508;42.622;25.416;2024-01-25T03:15:50;96762.34;;;2.48;74.15
45078;BME280;60508;42.622;25.416;2024-01-25T03:18:18;96754.34;;;3.11;74.56
45078;BME280;60508;42.622;25.416;2024-01-25T03:20:45;96772.28;;;3.44;72.97
45078;BME280;60508;42.622;25.416;2024-01-25T03:23:31;96758.44;;;3.07;72.05
45078;BME280;60508;42.622;25.416;2024-01-25T03:26:01;96761.81;;;3.36;74.73
45078;BME280;60508;42.622;25.416;2024-01-25T03:28:28;96765.31;;;3.36;72.57
45078;BME280;60508;42.622;25.416;2024-01-25T03:30:54;96741.91;;;3.11;75.52
45078;BME280;60508;42.622;25.416;2024-01-25T03:33:21;96741.16;;;4.13;75.58
45078;BME280;60508;42.622;25.416;2024-01-25T03:35:48;96731.06;;;5.02;72.48
45078;BME280;60508;42.622;25.416;2024-01-25T03:38:35;96735.25;;;5.81;70.19
45078;BME280;60508;42.622;25.416;2024-01-25T03:41:02;96735.41;;;6.18;68.47
45078;BME280;60508;42.622;25.416;2024-01-25T03:43:52;96730.75;;;6.39;67.20
45078;BME280;60508;42.622;25.416;2024-01-25T03:46:18;96733.44;;;6.64;66.90
45078;BME280;60508;42.622;25.416;2024-01-25T03:49:05;96742.56;;;7.19;65.24
45078;BME280;60508;42.622;25.416;2024-01-25T03:51:32;96748.69;;;7.38;64.65
45078;BME280;60508;42.622;25.416;2024-01-25T03:54:19;96746.22;;;7.55;64.01
45078;BME280;60508;42.622;25.416;2024-01-25T03:56:46;96759.16;;;7.58;63.97
45078;BME280;60508;42.622;25.416;2024-01-25T03:59:12;96738.75;;;7.45;64.48
45078;BME280;60508;42.622;25.416;2024-01-25T04:01:42;96754.66;;;7.40;64.98
45078;BME280;60508;42.622;25.416;2024-01-25T04:04:09;96756.19;;;7.47;64.99
45078;BME280;60508;42.622;25.416;2024-01-25T04:06:44;96757.69;;;7.43;65.46
45078;BME280;60508;42.622;25.416;2024-01-25T04:09:32;96759.69;;;7.78;62.99
45078;BME280;60508;42.622;25.416;2024-01-25T04:11:59;96770.19;;;7.80;63.00
45078;BME280;60508;42.622;25.416;2024-01-25T04:14:26;96755.41;;;7.77;62.59
45078;BME280;60508;42.622;25.416;2024-01-25T04:17:13;96763.25;;;7.91;61.80
45078;BME280;60508;42.622;25.416;2024-01-25T04:19:40;96762.13;;;7.98;61.58
45078;BME280;60508;42.622;25.416;2024-01-25T04:22:27;96755.22;;;8.33;59.61
45078;BME280;60508;42.622;25.416;2024-01-25T04:24:53;96756.69;;;8.59;58.48
45078;BME280;60508;42.622;25.416;2024-01-25T04:27:20;96750.88;;;8.62;57.81
45078;BME280;60508;42.622;25.416;2024-01-25T04:29:47;96752.41;;;8.70;56.88
45078;BME280;60508;42.622;25.416;2024-01-25T04:32:14;96749.38;;;8.54;57.40
45078;BME280;60508;42.622;25.416;2024-01-25T04:34:40;96758.91;;;8.50;57.84
45078;BME280;60508;42.622;25.416;2024-01-25T04:37:27;96761.53;;;8.38;58.18
45078;BME280;60508;42.622;25.416;2024-01-25T04:39:54;96748.59;;;8.23;58.96
45078;BME280;60508;42.622;25.416;2024-01-25T04:42:20;96757.75;;;8.16;59.21
45078;BME280;60508;42.622;25.416;2024-01-25T04:45:07;96746.88;;;7.99;60.31
45078;BME280;60508;42.622;25.416;2024-01-25T04:47:34;96747.50;;;8.01;59.92
45078;BME280;60508;42.622;25.416;2024-01-25T04:50:21;96751.88;;;7.95;60.65
45078;BME280;60508;42.622;25.416;2024-01-25T04:52:47;96736.78;;;8.01;60.90
45078;BME280;60508;42.622;25.416;2024-01-25T04:55:34;96719.66;;;8.02;60.65
45078;BME280;60508;42.622;25.416;2024-01-25T04:58:01;96716.44;;;8.12;60.03
45078;BME280;60508;42.622;25.416;2024-01-25T05:00:27;96718.91;;;8.25;59.57
45078;BME280;60508;42.622;25.416;2024-01-25T05:03:14;96719.16;;;8.35;58.78
45078;BME280;60508;42.622;25.416;2024-01-25T05:05:41;96719.50;;;8.27;59.37
45078;BME280;60508;42.622;25.416;2024-01-25T05:08:29;96719.50;;;8.27;58.70
45078;BME280;60508;42.622;25.416;2024-01-25T05:10:56;96720.56;;;8.38;58.31
45078;BME280;60508;42.622;25.416;2024-01-25T05:13:43;96725.44;;;8.41;58.80
45078;BME280;60508;42.622;25.416;2024-01-25T05:16:11;96724.78;;;8.46;58.34
45078;BME280;60508;42.622;25.416;2024-01-25T05:18:58;96713.16;;;8.52;58.75
45078;BME280;60508;42.622;25.416;2024-01-25T05:21:25;96712.59;;;8.62;58.43
45078;BME280;60508;42.622;25.416;2024-01-25T05:23:52;96703.03;;;8.54;59.21
45078;BME280;60508;42.622;25.416;2024-01-25T05:26:39;96692.19;;;8.61;59.20
45078;BME280;60508;42.622;25.416;2024-01-25T05:29:05;96691.50;;;8.53;58.91
45078;BME280;60508;42.622;25.416;2024-01-25T05:31:32;96691.09;;;8.38;59.97
45078;BME280;60508;42.622;25.416;2024-01-25T05:33:59;96670.53;;;8.38;59.33
45078;BME280;60508;42.622;25.416;2024-01-25T05:36:46;96668.22;;;8.54;57.36
45078;BME280;60508;42.622;25.416;2024-01-25T05:39:13;96662.06;;;8.53;58.32
45078;BME280;60508;42.622;25.416;2024-01-25T05:41:40;96650.59;;;8.34;59.74
45078;BME280;60508;42.622;25.416;2024-01-25T05:44:07;96651.19;;;8.36;59.52
45078;BME280;60508;42.622;25.416;2024-01-25T05:46:34;96640.41;;;8.43;59.39
45078;BME280;60508;42.622;25.416;2024-01-25T05:49:00;96641.66;;;8.40;59.44
45078;BME280;60508;42.622;25.416;2024-01-25T05:51:27;96637.56;;;8.38;58.79
45078;BME280;60508;42.622;25.416;2024-01-25T05:54:15;96655.53;;;8.61;58.51
45078;BME280;60508;42.622;25.416;2024-01-25T05:56:41;96650.88;;;8.56;58.53
45078;BME280;60508;42.622;25.416;2024-01-25T05:59:28;96656.13;;;8.51;58.62
45078;BME280;60508;42.622;25.416;2024-01-25T06:01:56;96654.25;;;8.52;58.39
45078;BME280;60508;42.622;25.416;2024-01-25T06:04:43;96657.63;;;8.47;58.74
45078;BME280;60508;42.622;25.416;2024-01-25T06:07:10;96663.09;;;8.52;58.08
45078;BME280;60508;42.622;25.416;2024-01-25T06:09:57;96691.38;;;8.72;57.27
45078;BME280;60508;42.622;25.416;2024-01-25T06:12:24;96708.50;;;8.71;57.10
45078;BME280;60508;42.622;25.416;2024-01-25T06:14:51;96722.16;;;8.57;56.57
45078;BME280;60508;42.622;25.416;2024-01-25T06:17:18;96730.88;;;8.65;54.77
45078;BME280;60508;42.622;25.416;2024-01-25T06:19:45;96734.00;;;8.62;55.67
45078;BME280;60508;42.622;25.416;2024-01-25T06:22:12;96731.69;;;8.65;54.57
45078;BME280;60508;42.622;25.416;2024-01-25T06:24:59;96727.72;;;8.68;53.75
45078;BME280;60508;42.622;25.416;2024-01-25T06:27:26;96725.50;;;8.65;54.54
45078;BME280;60508;42.622;25.416;2024-01-25T06:29:53;96719.09;;;8.54;55.13
45078;BME280;60508;42.622;25.416;2024-01-25T06:32:20;96727.81;;;8.49;54.73
45078;BME280;60508;42.622;25.416;2024-01-25T06:34:47;96718.75;;;8.62;53.11
45078;BME280;60508;42.622;25.416;2024-01-25T06:37:14;96711.97;;;9.07;51.50
45078;BME280;60508;42.622;25.416;2024-01-25T06:39:42;96725.81;;;9.27;51.34
45078;BME280;60508;42.622;25.416;2024-01-25T06:42:09;96731.19;;;9.16;50.57
45078;BME280;60508;42.622;25.416;2024-01-25T06:44:36;96732.81;;;9.17;51.29
45078;BME280;60508;42.622;25.416;2024-01-25T06:47:03;96731.84;;;9.35;50.73
45078;BME280;60508;42.622;25.416;2024-01-25T06:49:30;96727.19;;;9.42;49.89
45078;BME280;60508;42.622;25.416;2024-01-25T06:52:18;96722.94;;;9.58;51.15
45078;BME280;60508;42.622;25.416;2024-01-25T06:54:45;96727.47;;;9.57;49.60
45078;BME280;60508;42.622;25.416;2024-01-25T06:57:32;96733.41;;;9.71;48.53
45078;BME280;60508;42.622;25.416;2024-01-25T06:59:58;96739.78;;;9.82;48.20
45078;BME280;60508;42.622;25.416;2024-01-25T07:02:25;96758.56;;;9.82;48.66
45078;BME280;60508;42.622;25.416;2024-01-25T07:04:51;96743.13;;;9.89;47.65
45078;BME280;60508;42.622;25.416;2024-01-25T07:07:20;96749.97;;;9.97;47.79
45078;BME280;60508;42.622;25.416;2024-01-25T07:09:47;96752.44;;;9.98;47.17
45078;BME280;60508;42.622;25.416;2024-01-25T07:12:14;96748.97;;;10.15;46.15
45078;BME280;60508;42.622;25.416;2024-01-25T07:14:41;96749.59;;;10.22;45.06
45078;BME280;60508;42.622;25.416;2024-01-25T07:17:07;96757.19;;;10.25;45.68
45078;BME280;60508;42.622;25.416;2024-01-25T07:19:34;96755.63;;;10.41;45.28
45078;BME280;60508;42.622;25.416;2024-01-25T07:22:01;96755.94;;;10.45;45.77
45078;BME280;60508;42.622;25.416;2024-01-25T07:24:28;96753.78;;;10.30;45.76
45078;BME280;60508;42.622;25.416;2024-01-25T07:26:55;96743.31;;;9.99;46.66
45078;BME280;60508;42.622;25.416;2024-01-25T07:29:46;96731.84;;;10.04;47.12
45078;BME280;60508;42.622;25.416;2024-01-25T07:32:13;96741.78;;;10.32;45.79
45078;BME280;60508;42.622;25.416;2024-01-25T07:34:39;96761.09;;;10.63;44.95
45078;BME280;60508;42.622;25.416;2024-01-25T07:37:06;96760.84;;;10.82;43.84
45078;BME280;60508;42.622;25.416;2024-01-25T07:39:53;96761.66;;;10.82;43.83
45078;BME280;60508;42.622;25.416;2024-01-25T07:42:20;96754.06;;;10.96;43.02
45078;BME280;60508;42.622;25.416;2024-01-25T07:44:46;96765.13;;;11.00;42.47
45078;BME280;60508;42.622;25.416;2024-01-25T07:47:33;96773.59;;;11.08;42.91
45078;BME280;60508;42.622;25.416;2024-01-25T07:50:00;96777.75;;;11.16;42.79
45078;BME280;60508;42.622;25.416;2024-01-25T07:52:47;96766.63;;;10.90;42.87
45078;BME280;60508;42.622;25.416;2024-01-25T07:55:16;96772.31;;;10.94;42.63
45078;BME280;60508;42.622;25.416;2024-01-25T07:57:44;96770.19;;;11.13;39.85
45078;BME280;60508;42.622;25.416;2024-01-25T08:00:11;96772.09;;;11.35;40.10
45078;BME280;60508;42.622;25.416;2024-01-25T08:02:38;96765.22;;;11.44;39.46
45078;BME280;60508;42.622;25.416;2024-01-25T08:05:06;96774.91;;;11.67;39.28
45078;BME280;60508;42.622;25.416;2024-01-25T08:07:33;96762.78;;;11.64;39.28
45078;BME280;60508;42.622;25.416;2024-01-25T08:10:20;96772.31;;;11.94;39.00
45078;BME280;60508;42.622;25.416;2024-01-25T08:12:47;96767.97;;;11.93;39.82
45078;BME280;60508;42.622;25.416;2024-01-25T08:15:14;96763.84;;;11.63;39.96
45078;BME280;60508;42.622;25.416;2024-01-25T08:17:41;96766.78;;;11.84;39.78
45078;BME280;60508;42.622;25.416;2024-01-25T08:20:08;96769.09;;;12.19;40.00
45078;BME280;60508;42.622;25.416;2024-01-25T08:22:36;96778.69;;;12.10;39.78
45078;BME280;60508;42.622;25.416;2024-01-25T08:25:03;96775.78;;;12.44;39.66
45078;BME280;60508;42.622;25.416;2024-01-25T08:27:51;96774.50;;;12.52;38.69
45078;BME280;60508;42.622;25.416;2024-01-25T08:30:19;96784.78;;;12.55;38.26
45078;BME280;60508;42.622;25.416;2024-01-25T08:32:46;96762.28;;;12.39;38.98
45078;BME280;60508;42.622;25.416;2024-01-25T08:35:13;96774.97;;;12.16;38.33
45078;BME280;60508;42.622;25.416;2024-01-25T08:37:40;96780.13;;;12.18;38.52
45078;BME280;60508;42.622;25.416;2024-01-25T08:40:07;96781.09;;;11.90;36.09
45078;BME280;60508;42.622;25.416;2024-01-25T08:42:56;96771.50;;;11.94;35.78
45078;BME280;60508;42.622;25.416;2024-01-25T08:45:23;96771.00;;;11.97;36.65
45078;BME280;60508;42.622;25.416;2024-01-25T08:47:50;96777.69;;;12.16;36.52
45078;BME280;60508;42.622;25.416;2024-01-25T08:50:38;96786.56;;;12.17;35.74
45078;BME280;60508;42.622;25.416;2024-01-25T08:53:05;96785.72;;;12.11;34.46
45078;BME280;60508;42.622;25.416;2024-01-25T08:55:32;96803.44;;;12.34;34.46
45078;BME280;60508;42.622;25.416;2024-01-25T08:58:19;96785.03;;;12.26;33.98
45078;BME280;60508;42.622;25.416;2024-01-25T09:00:46;96812.59;;;12.33;33.93
45078;BME280;60508;42.622;25.416;2024-01-25T09:03:14;96805.19;;;12.46;34.16
45078;BME280;60508;42.622;25.416;2024-01-25T09:06:01;96809.44;;;13.06;33.42
45078;BME280;60508;42.622;25.416;2024-01-25T09:08:32;96793.91;;;13.19;33.16
45078;BME280;60508;42.622;25.416;2024-01-25T09:10:58;96786.91;;;13.23;33.15
45078;BME280;60508;42.622;25.416;2024-01-25T09:13:25;96794.91;;;13.45;32.85
45078;BME280;60508;42.622;25.416;2024-01-25T09:16:12;96786.50;;;13.94;32.43
45078;BME280;60508;42.622;25.416;2024-01-25T09:18:39;96779.59;;;13.61;32.41
45078;BME280;60508;42.622;25.416;2024-01-25T09:21:26;96763.06;;;13.47;31.95
45078;BME280;60508;42.622;25.416;2024-01-25T09:23:54;96802.47;;;13.48;31.94
45078;BME280;60508;42.622;25.416;2024-01-25T09:26:41;96784.34;;;14.01;31.57
45078;BME280;60508;42.622;25.416;2024-01-25T09:29:08;96778.84;;;14.65;31.10
45078;BME280;60508;42.622;25.416;2024-01-25T09:31:36;96788.25;;;14.57;31.41
45078;BME280;60508;42.622;25.416;2024-01-25T09:34:03;96780.59;;;14.13;30.27
45078;BME280;60508;42.622;25.416;2024-01-25T09:36:30;96785.25;;;14.28;31.18
45078;BME280;60508;42.622;25.416;2024-01-25T09:38:57;96775.81;;;14.56;30.92
45078;BME280;60508;42.622;25.416;2024-01-25T09:41:25;96786.38;;;14.57;30.90
45078;BME280;60508;42.622;25.416;2024-01-25T09:44:12;96786.25;;;14.11;32.23
45078;BME280;60508;42.622;25.416;2024-01-25T09:46:41;96808.00;;;14.47;31.62
45078;BME280;60508;42.622;25.416;2024-01-25T09:49:08;96795.81;;;14.45;31.56
45078;BME280;60508;42.622;25.416;2024-01-25T09:51:40;96797.03;;;14.01;32.46
45078;BME280;60508;42.622;25.416;2024-01-25T09:54:08;96796.97;;;13.80;31.68
45078;BME280;60508;42.622;25.416;2024-01-25T09:56:35;96785.78;;;14.40;31.77
45078;BME280;60508;42.622;25.416;2024-01-25T09:59:23;96771.78;;;13.64;32.11
45078;BME280;60508;42.622;25.416;2024-01-25T10:01:53;96771.78;;;13.64;33.07
45078;BME280;60508;42.622;25.416;2024-01-25T10:04:20;96775.19;;;13.39;32.52
45078;BME280;60508;42.622;25.416;2024-01-25T10:06:50;96786.22;;;13.38;32.90
45078;BME280;60508;42.622;25.416;2024-01-25T10:09:17;96780.69;;;13.60;32.86
45078;BME280;60508;42.622;25.416;2024-01-25T10:12:04;96772.91;;;13.74;32.79
45078;BME280;60508;42.622;25.416;2024-01-25T10:14:31;96780.81;;;13.32;33.22
45078;BME280;60508;42.622;25.416;2024-01-25T10:17:18;96781.59;;;12.58;34.54
45078;BME280;60508;42.622;25.416;2024-01-25T10:19:46;96784.38;;;11.92;34.09
45078;BME280;60508;42.622;25.416;2024-01-25T10:22:13;96783.34;;;11.93;34.50
45078;BME280;60508;42.622;25.416;2024-01-25T10:25:01;96776.38;;;11.75;33.75
45078;BME280;60508;42.622;25.416;2024-01-25T10:27:28;96767.03;;;11.82;34.24
45078;BME280;60508;42.622;25.416;2024-01-25T10:29:55;96765.78;;;12.12;33.70
45078;BME280;60508;42.622;25.416;2024-01-25T10:32:23;96763.69;;;12.79;33.21
45078;BME280;60508;42.622;25.416;2024-01-25T10:35:10;96749.59;;;12.12;32.86
45078;BME280;60508;42.622;25.416;2024-01-25T10:37:39;96756.28;;;11.60;33.50
45078;BME280;60508;42.622;25.416;2024-01-25T10:40:28;96722.66;;;11.41;33.75
45078;BME280;60508;42.622;25.416;2024-01-25T10:42:56;96734.03;;;11.48;34.69
45078;BME280;60508;42.622;25.416;2024-01-25T10:45:23;96723.13;;;11.82;34.03
45078;BME280;60508;42.622;25.416;2024-01-25T10:47:50;96721.22;;;11.77;34.23
45078;BME280;60508;42.622;25.416;2024-01-25T10:50:18;96713.88;;;11.95;33.32
45078;BME280;60508;42.622;25.416;2024-01-25T10:52:44;96712.28;;;11.94;33.54
45078;BME280;60508;42.622;25.416;2024-01-25T10:55:33;96711.47;;;11.71;34.41
45078;BME280;60508;42.622;25.416;2024-01-25T10:58:01;96715.47;;;11.24;35.01
45078;BME280;60508;42.622;25.416;2024-01-25T11:00:31;96699.66;;;11.28;35.89
45078;BME280;60508;42.622;25.416;2024-01-25T11:03:20;96688.03;;;11.72;34.89
45078;BME280;60508;42.622;25.416;2024-01-25T11:05:48;96686.06;;;12.81;33.40
45078;BME280;60508;42.622;25.416;2024-01-25T11:08:19;96698.41;;;13.73;31.76
45078;BME280;60508;42.622;25.416;2024-01-25T11:10:53;96686.50;;;13.79;31.94
45078;BME280;60508;42.622;25.416;2024-01-25T11:13:26;96683.53;;;12.32;33.86
45078;BME280;60508;42.622;25.416;2024-01-25T11:15:53;96685.34;;;11.94;35.02
45078;BME280;60508;42.622;25.416;2024-01-25T11:18:25;96686.56;;;11.59;35.71
45078;BME280;60508;42.622;25.416;2024-01-25T11:20:52;96699.22;;;11.58;35.67
45078;BME280;60508;42.622;25.416;2024-01-25T11:23:19;96697.06;;;11.60;35.93
45078;BME280;60508;42.622;25.416;2024-01-25T11:26:08;96689.09;;;11.43;35.92
45078;BME280;60508;42.622;25.416;2024-01-25T11:28:35;96678.25;;;11.87;35.01
45078;BME280;60508;42.622;25.416;2024-01-25T11:31:03;96694.50;;;12.25;34.38
45078;BME280;60508;42.622;25.416;2024-01-25T11:33:51;96689.66;;;12.27;33.55
45078;BME280;60508;42.622;25.416;2024-01-25T11:36:20;96680.03;;;12.69;33.43
45078;BME280;60508;42.622;25.416;2024-01-25T11:38:48;96695.50;;;12.84;33.52
45078;BME280;60508;42.622;25.416;2024-01-25T11:41:16;96687.81;;;12.65;33.67
45078;BME280;60508;42.622;25.416;2024-01-25T11:43:42;96695.75;;;12.12;34.09
45078;BME280;60508;42.622;25.416;2024-01-25T11:46:30;96701.28;;;12.00;34.10
45078;BME280;60508;42.622;25.416;2024-01-25T11:48:58;96709.28;;;11.68;35.38
45078;BME280;60508;42.622;25.416;2024-01-25T11:51:45;96692.00;;;11.91;35.25
45078;BME280;60508;42.622;25.416;2024-01-25T11:54:12;96695.31;;;11.71;35.87
45078;BME280;60508;42.622;25.416;2024-01-25T11:56:40;96708.16;;;11.42;36.10
45078;BME280;60508;42.622;25.416;2024-01-25T11:59:09;96696.50;;;10.92;36.92
45078;BME280;60508;42.622;25.416;2024-01-25T12:01:56;96708.41;;;10.62;38.30
45078;BME280;60508;42.622;25.416;2024-01-25T12:04:26;96704.03;;;10.39;38.42
45078;BME280;60508;42.622;25.416;2024-01-25T12:06:54;96705.00;;;10.33;38.65
45078;BME280;60508;42.622;25.416;2024-01-25T12:09:41;96705.59;;;10.23;38.99
45078;BME280;60508;42.622;25.416;2024-01-25T12:12:10;96699.63;;;10.04;39.12
45078;BME280;60508;42.622;25.416;2024-01-25T12:14:37;96720.81;;;10.17;38.79
45078;BME280;60508;42.622;25.416;2024-01-25T12:17:05;96692.97;;;10.07;38.70
45078;BME280;60508;42.622;25.416;2024-01-25T12:19:32;96688.66;;;10.05;39.23
45078;BME280;60508;42.622;25.416;2024-01-25T12:22:00;96687.03;;;10.04;39.71
45078;BME280;60508;42.622;25.416;2024-01-25T12:24:47;96686.28;;;10.09;39.36
45078;BME280;60508;42.622;25.416;2024-01-25T12:27:15;96701.69;;;10.14;39.60
45078;BME280;60508;42.622;25.416;2024-01-25T12:29:42;96695.81;;;10.00;39.44
45078;BME280;60508;42.622;25.416;2024-01-25T12:32:12;96706.34;;;9.90;39.64
45078;BME280;60508;42.622;25.416;2024-01-25T12:34:40;96716.50;;;9.71;40.55
45078;BME280;60508;42.622;25.416;2024-01-25T12:37:08;96710.63;;;9.74;39.67
45078;BME280;60508;42.622;25.416;2024-01-25T12:39:36;96717.78;;;9.68;40.03
45078;BME280;60508;42.622;25.416;2024-01-25T12:42:03;96707.94;;;9.74;39.74
45078;BME280;60508;42.622;25.416;2024-01-25T12:44:30;96700.63;;;9.69;40.17
45078;BME280;60508;42.622;25.416;2024-01-25T12:46:57;96716.97;;;9.67;40.30
45078;BME280;60508;42.622;25.416;2024-01-25T12:49:28;96711.84;;;9.66;40.29
45078;BME280;60508;42.622;25.416;2024-01-25T12:51:55;96710.75;;;9.67;39.61
45078;BME280;60508;42.622;25.416;2024-01-25T12:54:22;96707.19;;;9.61;39.53
45078;BME280;60508;42.622;25.416;2024-01-25T12:56:49;96705.34;;;9.50;39.55
45078;BME280;60508;42.622;25.416;2024-01-25T12:59:16;96718.53;;;9.52;40.41
45078;BME280;60508;42.622;25.416;2024-01-25T13:02:04;96709.78;;;9.56;40.36
45078;BME280;60508;42.622;25.416;2024-01-25T13:04:32;96698.34;;;9.49;40.62
45078;BME280;60508;42.622;25.416;2024-01-25T13:07:20;96709.66;;;9.51;39.25
45078;BME280;60508;42.622;25.416;2024-01-25T13:10:13;96697.75;;;9.59;39.57
45078;BME280;60508;42.622;25.416;2024-01-25T13:12:41;96726.09;;;9.55;39.57
45078;BME280;60508;42.622;25.416;2024-01-25T13:15:08;96721.06;;;9.58;40.28
45078;BME280;60508;42.622;25.416;2024-01-25T13:17:35;96733.56;;;9.53;40.19
45078;BME280;60508;42.622;25.416;2024-01-25T13:20:06;96735.91;;;9.49;39.80
45078;BME280;60508;42.622;25.416;2024-01-25T13:22:34;96745.50;;;9.45;40.39